createdAt,value
2022-08-22T00:00:35.618Z,16.77
2022-08-22T00:02:45.055Z,20.81
2022-08-22T00:02:45.442Z,19.94
2022-08-22T00:02:49.632Z,17.49
2022-08-22T00:02:55.068Z,17.47
2022-08-22T00:03:02.741Z,19.10
2022-08-22T00:03:06.480Z,17.18
2022-08-22T00:03:18.721Z,16.79
2022-08-22T00:05:55.095Z,16.70
2022-08-22T00:08:29.903Z,16.85
2022-08-22T00:11:06.798Z,16.95
2022-08-22T00:13:40.630Z,16.83
2022-08-22T00:16:14.639Z,16.68
2022-08-22T00:18:47.191Z,16.67
2022-08-22T00:21:17.806Z,16.60
2022-08-22T00:23:52.581Z,16.59
2022-08-22T00:26:28.653Z,16.58
2022-08-22T00:29:02.761Z,16.55
2022-08-22T00:31:35.070Z,16.55
2022-08-22T00:34:06.657Z,16.53
2022-08-22T00:36:40.262Z,16.54
2022-08-22T00:39:15.657Z,16.50
2022-08-22T00:42:55.783Z,16.44
2022-08-22T00:45:49.490Z,16.40
2022-08-22T00:49:04.989Z,16.39
2022-08-22T00:51:59.269Z,16.38
2022-08-22T00:54:45.560Z,16.41
2022-08-22T00:57:32.197Z,16.43
2022-08-22T01:00:11.368Z,16.39
2022-08-22T01:02:58.324Z,16.41
2022-08-22T01:05:41.493Z,16.39
2022-08-22T01:08:20.507Z,16.29
2022-08-22T01:11:03.408Z,16.21
2022-08-22T01:13:48.213Z,16.18
2022-08-22T01:17:04.033Z,16.14
2022-08-22T01:19:57.754Z,16.16
2022-08-22T01:22:49.768Z,16.20
2022-08-22T01:25:55.102Z,16.23
2022-08-22T01:28:49.294Z,16.31
2022-08-22T01:31:59.102Z,16.17
2022-08-22T01:34:58.154Z,16.21
2022-08-22T01:37:54.576Z,16.20
2022-08-22T01:40:58.719Z,16.13
2022-08-22T01:43:58.650Z,16.17
2022-08-22T01:46:42.199Z,16.17
2022-08-22T01:49:17.737Z,16.12
2022-08-22T01:51:52.721Z,16.11
2022-08-22T01:54:32.147Z,16.21
2022-08-22T01:57:03.416Z,16.14
2022-08-22T01:59:34.366Z,16.09
2022-08-22T02:02:10.740Z,15.98
2022-08-22T02:04:43.651Z,15.97
2022-08-22T02:07:19.839Z,15.93
2022-08-22T02:10:06.349Z,15.87
2022-08-22T02:12:42.563Z,15.87
2022-08-22T02:15:20.909Z,15.87
2022-08-22T02:17:57.492Z,15.86
2022-08-22T02:20:32.278Z,15.85
2022-08-22T02:23:07.626Z,15.89
2022-08-22T02:25:48.505Z,15.94
2022-08-22T02:28:20.710Z,15.97
2022-08-22T02:30:56.671Z,15.97
2022-08-22T02:33:31.668Z,15.97
2022-08-22T02:36:07.036Z,15.79
2022-08-22T02:38:40.027Z,15.79
2022-08-22T02:41:12.504Z,15.74
2022-08-22T02:43:47.547Z,15.75
2022-08-22T02:46:24.476Z,15.71
2022-08-22T02:49:00.177Z,15.66
2022-08-22T02:51:35.847Z,15.67
2022-08-22T02:54:16.092Z,15.74
2022-08-22T02:56:47.802Z,15.87
2022-08-22T02:59:25.023Z,15.89
2022-08-22T03:01:53.251Z,15.83
2022-08-22T03:04:47.110Z,15.74
2022-08-22T03:07:24.861Z,15.66
2022-08-22T03:10:02.910Z,15.67
2022-08-22T03:12:33.570Z,15.75
2022-08-22T03:15:10.826Z,15.69
2022-08-22T03:17:47.035Z,15.63
2022-08-22T03:20:16.183Z,15.64
2022-08-22T03:22:50.031Z,15.67
2022-08-22T03:25:27.796Z,15.69
2022-08-22T03:28:00.516Z,15.60
2022-08-22T03:30:37.070Z,15.57
2022-08-22T03:33:17.858Z,15.62
2022-08-22T03:35:59.763Z,15.69
2022-08-22T03:38:31.073Z,15.73
2022-08-22T03:41:33.275Z,15.75
2022-08-22T03:44:21.202Z,15.67
2022-08-22T03:47:11.677Z,15.70
2022-08-22T03:50:00.941Z,16.08
2022-08-22T03:53:04.717Z,16.05
2022-08-22T03:55:40.179Z,16.08
2022-08-22T03:58:28.547Z,16.25
2022-08-22T04:01:15.557Z,16.20
2022-08-22T04:04:07.330Z,16.27
2022-08-22T04:06:59.126Z,16.29
2022-08-22T04:09:51.816Z,16.24
2022-08-22T04:12:59.446Z,16.25
2022-08-22T04:15:49.020Z,16.22
2022-08-22T04:18:44.674Z,16.22
2022-08-22T04:21:28.616Z,16.27
2022-08-22T04:24:12.902Z,16.22
2022-08-22T04:26:46.202Z,16.20
2022-08-22T04:29:19.023Z,16.26
2022-08-22T04:31:49.036Z,16.24
2022-08-22T04:34:22.601Z,16.26
2022-08-22T04:36:55.596Z,16.27
2022-08-22T04:39:27.353Z,16.44
2022-08-22T04:42:16.332Z,16.49
2022-08-22T04:44:53.852Z,16.59
2022-08-22T04:47:29.299Z,16.56
2022-08-22T04:50:01.021Z,16.54
2022-08-22T04:52:48.221Z,16.57
2022-08-22T04:55:33.067Z,16.59
2022-08-22T04:58:10.991Z,16.64
2022-08-22T05:00:43.264Z,16.67
2022-08-22T05:03:16.250Z,16.72
2022-08-22T05:05:45.061Z,16.90
2022-08-22T05:08:14.892Z,16.90
2022-08-22T05:10:46.633Z,16.92
2022-08-22T05:13:19.171Z,16.97
2022-08-22T05:15:50.019Z,17.04
2022-08-22T05:18:22.651Z,17.12
2022-08-22T05:20:58.416Z,17.17
2022-08-22T05:23:29.071Z,17.34
2022-08-22T05:26:00.725Z,17.37
2022-08-22T05:28:34.870Z,17.57
2022-08-22T05:31:05.641Z,17.64
2022-08-22T05:33:39.348Z,17.65
2022-08-22T05:36:09.381Z,17.80
2022-08-22T05:38:41.519Z,17.95
2022-08-22T05:41:12.608Z,18.01
2022-08-22T05:43:43.161Z,17.97
2022-08-22T05:46:17.359Z,18.03
2022-08-22T05:48:52.629Z,18.12
2022-08-22T05:51:25.266Z,18.27
2022-08-22T05:53:57.508Z,18.46
2022-08-22T05:56:30.945Z,18.53
2022-08-22T05:59:04.181Z,18.76
2022-08-22T06:01:38.997Z,18.83
2022-08-22T06:04:13.090Z,18.99
2022-08-22T06:06:43.886Z,19.05
2022-08-22T06:09:18.364Z,19.05
2022-08-22T06:11:51.883Z,19.37
2022-08-22T06:14:30.100Z,19.27
2022-08-22T06:17:07.680Z,19.15
2022-08-22T06:19:40.409Z,19.29
2022-08-22T06:22:08.147Z,19.42
2022-08-22T06:24:37.835Z,19.54
2022-08-22T06:27:09.399Z,19.52
2022-08-22T06:29:41.025Z,19.54
2022-08-22T06:32:12.758Z,19.54
2022-08-22T06:34:44.046Z,19.67
2022-08-22T06:37:18.058Z,19.98
2022-08-22T06:39:49.880Z,20.08
2022-08-22T06:42:19.797Z,20.24
2022-08-22T06:44:51.137Z,20.39
2022-08-22T06:47:23.283Z,20.59
2022-08-22T06:49:55.325Z,20.38
2022-08-22T06:52:24.753Z,20.59
2022-08-22T06:55:00.320Z,20.81
2022-08-22T06:57:33.823Z,20.57
2022-08-22T07:00:06.497Z,20.56
2022-08-22T07:02:38.111Z,20.60
2022-08-22T07:05:08.473Z,20.73
2022-08-22T07:07:37.203Z,20.83
2022-08-22T07:10:06.312Z,20.83
2022-08-22T07:12:39.079Z,20.90
2022-08-22T07:15:11.009Z,21.09
2022-08-22T07:17:49.535Z,21.33
2022-08-22T07:20:25.612Z,21.17
2022-08-22T07:22:57.235Z,21.27
2022-08-22T07:25:25.837Z,21.34
2022-08-22T07:28:08.207Z,21.44
2022-08-22T07:30:53.813Z,21.29
2022-08-22T07:33:33.299Z,21.12
2022-08-22T07:36:17.231Z,21.27
2022-08-22T07:38:48.170Z,21.23
2022-08-22T07:41:19.961Z,21.41
2022-08-22T07:43:50.339Z,21.51
2022-08-22T07:46:26.867Z,21.61
2022-08-22T07:49:09.893Z,21.56
2022-08-22T07:51:43.583Z,21.51
2022-08-22T07:54:13.612Z,21.72
2022-08-22T07:56:44.332Z,21.62
2022-08-22T07:59:16.931Z,21.74
2022-08-22T08:01:45.235Z,21.73
2022-08-22T08:04:18.954Z,21.94
2022-08-22T08:06:49.915Z,22.30
2022-08-22T08:09:19.663Z,22.43
2022-08-22T08:11:50.046Z,22.45
2022-08-22T08:14:19.916Z,22.41
2022-08-22T08:16:52.950Z,22.57
2022-08-22T08:19:21.314Z,22.72
2022-08-22T08:21:53.493Z,22.96
2022-08-22T08:24:23.994Z,23.05
2022-08-22T08:27:12.404Z,22.92
2022-08-22T08:29:41.994Z,22.92
2022-08-22T08:32:11.635Z,22.93
2022-08-22T08:34:40.394Z,23.20
2022-08-22T08:37:15.559Z,23.47
2022-08-22T08:39:48.406Z,23.58
2022-08-22T08:43:02.221Z,23.87
2022-08-22T08:45:42.418Z,23.84
2022-08-22T08:48:30.791Z,23.99
2022-08-22T08:51:36.969Z,24.40
2022-08-22T08:54:18.840Z,24.55
2022-08-22T08:56:54.425Z,24.77
2022-08-22T08:59:30.930Z,24.88
2022-08-22T09:02:27.130Z,24.89
2022-08-22T09:05:21.401Z,25.14
2022-08-22T09:08:31.911Z,25.54
2022-08-22T09:14:19.477Z,25.76
2022-08-22T09:16:58.711Z,25.86
2022-08-22T09:19:50.071Z,26.00
2022-08-22T09:22:50.121Z,25.99
2022-08-22T09:25:24.701Z,25.91
2022-08-22T09:28:00.641Z,25.23
2022-08-22T09:30:54.030Z,25.58
2022-08-22T09:33:24.783Z,25.53
2022-08-22T09:35:59.105Z,25.06
2022-08-22T09:38:47.969Z,24.83
2022-08-22T09:41:29.425Z,24.66
2022-08-22T09:44:15.431Z,24.52
2022-08-22T09:46:54.046Z,24.63
2022-08-22T09:49:32.731Z,24.41
2022-08-22T09:52:14.530Z,24.30
2022-08-22T09:54:59.480Z,24.27
2022-08-22T09:57:34.596Z,24.16
2022-08-22T10:00:22.184Z,23.89
2022-08-22T10:02:59.467Z,24.01
2022-08-22T10:05:40.421Z,23.96
2022-08-22T10:08:34.715Z,23.97
2022-08-22T10:11:22.935Z,23.75
2022-08-22T10:14:00.500Z,23.90
2022-08-22T10:17:00.740Z,23.90
2022-08-22T10:19:32.218Z,23.95
2022-08-22T10:22:30.227Z,24.06
2022-08-22T10:25:08.563Z,24.30
2022-08-22T10:27:50.348Z,24.08
2022-08-22T10:30:20.252Z,24.31
2022-08-22T10:32:55.374Z,24.28
2022-08-22T10:35:33.863Z,24.24
2022-08-22T10:38:12.425Z,24.42
2022-08-22T10:40:44.311Z,24.53
2022-08-22T10:43:21.261Z,24.22
2022-08-22T10:46:02.638Z,24.43
2022-08-22T10:48:47.537Z,25.08
2022-08-22T10:51:28.729Z,26.12
2022-08-22T10:54:20.580Z,25.93
2022-08-22T10:56:52.735Z,26.19
2022-08-22T10:59:32.795Z,25.97
2022-08-22T11:02:11.868Z,25.37
2022-08-22T11:05:08.127Z,25.54
2022-08-22T11:07:48.548Z,25.49
2022-08-22T11:10:24.814Z,25.98
2022-08-22T11:13:02.890Z,25.82
2022-08-22T11:15:53.106Z,26.06
2022-08-22T11:18:30.446Z,26.11
2022-08-22T11:21:02.612Z,26.17
2022-08-22T11:23:40.615Z,25.61
2022-08-22T11:26:29.885Z,25.95
2022-08-22T11:29:15.167Z,26.31
2022-08-22T11:31:51.292Z,26.44
2022-08-22T11:34:29.876Z,26.12
2022-08-22T11:37:10.970Z,26.17
2022-08-22T11:39:45.224Z,26.48
2022-08-22T11:42:22.150Z,26.46
2022-08-22T11:44:55.184Z,26.34
2022-08-22T11:47:28.930Z,25.56
2022-08-22T11:50:00.131Z,25.85
2022-08-22T11:52:54.657Z,25.95
2022-08-22T11:55:32.968Z,26.03
2022-08-22T11:58:11.264Z,26.16
2022-08-22T12:00:46.301Z,25.99
2022-08-22T12:03:58.666Z,26.04
2022-08-22T12:06:42.286Z,25.86
2022-08-22T12:09:17.864Z,25.98
2022-08-22T12:12:00.003Z,25.46
2022-08-22T12:14:34.558Z,25.36
2022-08-22T12:17:50.937Z,25.60
2022-08-22T12:20:16.305Z,25.12
2022-08-22T12:22:58.502Z,25.31
2022-08-22T12:25:44.448Z,25.44
2022-08-22T12:28:20.560Z,25.06
2022-08-22T12:30:54.869Z,25.01
2022-08-22T12:33:41.961Z,24.80
2022-08-22T12:36:26.540Z,24.91
2022-08-22T12:39:13.970Z,24.89
2022-08-22T12:42:13.855Z,24.84
2022-08-22T12:44:52.910Z,24.92
2022-08-22T12:47:34.442Z,24.80
2022-08-22T12:50:21.560Z,25.08
2022-08-22T12:53:06.852Z,24.79
2022-08-22T12:55:44.063Z,24.63
2022-08-22T12:58:17.709Z,24.37
2022-08-22T13:00:48.424Z,24.30
2022-08-22T13:03:24.739Z,24.26
2022-08-22T13:05:57.046Z,24.14
2022-08-22T13:08:30.644Z,24.00
2022-08-22T13:11:02.339Z,23.99
2022-08-22T13:13:38.568Z,23.91
2022-08-22T13:16:09.058Z,23.82
2022-08-22T13:18:47.886Z,23.90
2022-08-22T13:21:25.050Z,23.89
2022-08-22T13:24:02.699Z,23.90
2022-08-22T13:26:37.464Z,24.21
2022-08-22T13:29:27.115Z,23.93
2022-08-22T13:31:59.998Z,23.79
2022-08-22T13:34:39.610Z,23.76
2022-08-22T13:37:12.118Z,23.71
2022-08-22T13:39:43.300Z,23.61
2022-08-22T13:42:21.206Z,23.56
2022-08-22T13:45:03.009Z,23.64
2022-08-22T13:47:35.224Z,23.60
2022-08-22T13:50:12.437Z,23.69
2022-08-22T13:52:45.853Z,23.66
2022-08-22T13:55:29.431Z,23.58
2022-08-22T13:58:01.974Z,24.03
2022-08-22T14:01:04.026Z,24.04
2022-08-22T14:03:39.619Z,24.09
2022-08-22T14:06:38.055Z,24.21
2022-08-22T14:09:17.488Z,24.23
2022-08-22T14:12:08.175Z,24.62
2022-08-22T14:14:42.398Z,24.58
2022-08-22T14:17:17.957Z,24.70
2022-08-22T14:19:58.978Z,24.39
2022-08-22T14:22:32.088Z,24.40
2022-08-22T14:25:07.325Z,24.14
2022-08-22T14:27:39.767Z,24.42
2022-08-22T14:30:15.149Z,24.37
2022-08-22T14:32:48.809Z,24.48
2022-08-22T14:35:26.434Z,24.72
2022-08-22T14:38:29.919Z,24.84
2022-08-22T14:40:59.640Z,25.45
2022-08-22T14:43:40.772Z,25.73
2022-08-22T14:46:11.578Z,25.88
2022-08-22T14:48:45.266Z,25.74
2022-08-22T14:51:21.200Z,25.56
2022-08-22T14:53:50.008Z,25.50
2022-08-22T14:56:21.686Z,25.03
2022-08-22T14:58:54.478Z,24.82
2022-08-22T15:01:25.314Z,24.84
2022-08-22T15:03:56.585Z,24.79
2022-08-22T15:06:35.159Z,24.88
2022-08-22T15:09:07.714Z,24.69
2022-08-22T15:11:37.861Z,24.98
2022-08-22T15:14:13.562Z,25.05
2022-08-22T15:16:46.410Z,24.88
2022-08-22T15:19:27.960Z,25.08
2022-08-22T15:22:11.256Z,25.01
2022-08-22T15:24:43.360Z,24.78
2022-08-22T15:27:12.918Z,24.58
2022-08-22T15:29:50.580Z,24.60
2022-08-22T15:32:22.358Z,24.29
2022-08-22T15:34:53.271Z,24.00
2022-08-22T15:37:33.453Z,23.92
2022-08-22T15:40:12.502Z,24.17
2022-08-22T15:42:43.545Z,24.46
2022-08-22T15:45:20.870Z,24.24
2022-08-22T15:47:53.068Z,24.33
2022-08-22T15:50:34.302Z,24.25
2022-08-22T15:53:27.180Z,24.04
2022-08-22T15:56:23.618Z,24.11
2022-08-22T15:59:21.640Z,24.40
2022-08-22T16:01:52.538Z,24.57
2022-08-22T16:04:33.983Z,24.31
2022-08-22T16:07:19.318Z,24.23
2022-08-22T16:09:50.193Z,24.38
2022-08-22T16:12:32.089Z,24.18
2022-08-22T16:15:01.297Z,23.99
2022-08-22T16:17:53.526Z,23.97
2022-08-22T16:20:47.655Z,24.14
2022-08-22T16:23:16.976Z,23.94
2022-08-22T16:26:08.410Z,23.86
2022-08-22T16:29:02.814Z,23.92
2022-08-22T16:31:33.188Z,23.86
2022-08-22T16:34:22.656Z,23.82
2022-08-22T16:36:52.242Z,23.67
2022-08-22T16:39:40.211Z,23.61
2022-08-22T16:42:27.080Z,23.57
2022-08-22T16:45:10.925Z,23.61
2022-08-22T16:47:42.625Z,23.60
2022-08-22T16:50:29.377Z,23.49
2022-08-22T16:53:01.219Z,23.36
2022-08-22T16:56:03.234Z,23.41
2022-08-22T16:59:09.911Z,23.38
2022-08-22T17:01:57.778Z,23.31
2022-08-22T17:04:33.549Z,23.25
2022-08-22T17:07:13.219Z,23.12
2022-08-22T17:10:02.945Z,22.93
2022-08-22T17:12:44.442Z,22.92
2022-08-22T17:15:28.323Z,22.84
2022-08-22T17:18:12.870Z,22.77
2022-08-22T17:20:45.359Z,22.80
2022-08-22T17:23:20.859Z,22.54
2022-08-22T17:26:00.712Z,22.48
2022-08-22T17:28:37.222Z,22.42
2022-08-22T17:31:12.575Z,22.28
2022-08-22T17:34:03.026Z,22.33
2022-08-22T17:36:42.270Z,22.23
2022-08-22T17:39:19.746Z,22.19
2022-08-22T17:41:54.547Z,22.23
2022-08-22T17:44:29.769Z,22.33
2022-08-22T17:47:02.778Z,22.17
2022-08-22T17:49:50.432Z,22.24
2022-08-22T17:52:23.864Z,22.20
2022-08-22T17:54:55.237Z,22.43
2022-08-22T17:57:28.426Z,22.25
2022-08-22T18:00:00.970Z,22.14
2022-08-22T18:02:33.114Z,22.18
2022-08-22T18:05:06.146Z,22.12
2022-08-22T18:07:42.787Z,21.84
2022-08-22T18:10:14.820Z,21.74
2022-08-22T18:12:51.754Z,21.64
2022-08-22T18:15:26.678Z,21.46
2022-08-22T18:17:57.692Z,21.27
2022-08-22T18:20:29.192Z,21.20
2022-08-22T18:23:01.259Z,21.12
2022-08-22T18:25:40.762Z,21.06
2022-08-22T18:28:14.192Z,20.91
2022-08-22T18:30:56.026Z,20.93
2022-08-22T18:33:32.802Z,20.83
2022-08-22T18:36:06.228Z,20.73
2022-08-22T18:38:38.889Z,20.73
2022-08-22T18:41:11.538Z,20.63
2022-08-22T18:43:41.499Z,20.45
2022-08-22T18:46:31.690Z,20.51
2022-08-22T18:49:17.266Z,20.50
2022-08-22T18:51:45.316Z,20.52
2022-08-22T18:54:29.850Z,20.36
2022-08-22T18:57:02.319Z,20.32
2022-08-22T18:59:45.969Z,20.20
2022-08-22T19:02:35.110Z,20.13
2022-08-22T19:05:24.703Z,20.02
2022-08-22T19:08:09.044Z,20.11
2022-08-22T19:10:46.206Z,20.14
2022-08-22T19:13:35.982Z,19.94
2022-08-22T19:16:17.427Z,19.80
2022-08-22T19:18:53.948Z,19.84
2022-08-22T19:21:45.481Z,19.79
2022-08-22T19:24:36.260Z,19.73
2022-08-22T19:27:25.452Z,19.65
2022-08-22T19:30:01.793Z,19.57
2022-08-22T19:33:02.997Z,19.65
2022-08-22T19:35:57.828Z,19.66
2022-08-22T19:38:57.751Z,19.53
2022-08-22T19:41:39.744Z,19.45
2022-08-22T19:44:10.788Z,19.50
2022-08-22T19:46:41.564Z,19.47
2022-08-22T19:49:25.410Z,19.34
2022-08-22T19:52:05.302Z,19.40
2022-08-22T19:54:34.360Z,19.22
2022-08-22T19:57:11.565Z,19.21
2022-08-22T19:59:50.958Z,19.33
2022-08-22T20:02:26.675Z,19.20
2022-08-22T20:05:06.345Z,19.16
2022-08-22T20:07:45.807Z,19.22
2022-08-22T20:10:26.790Z,19.16
2022-08-22T20:13:07.555Z,19.15
2022-08-22T20:16:07.286Z,19.13
2022-08-22T20:19:17.429Z,18.98
2022-08-22T20:21:50.297Z,18.90
2022-08-22T20:24:25.667Z,18.98
2022-08-22T20:27:14.458Z,18.87
2022-08-22T20:29:51.893Z,18.93
2022-08-22T20:32:23.023Z,18.90
2022-08-22T20:34:56.983Z,18.88
2022-08-22T20:37:45.295Z,18.94
2022-08-22T20:40:55.938Z,18.77
2022-08-22T20:43:25.398Z,18.74
2022-08-22T20:46:05.626Z,18.87
2022-08-22T20:48:39.555Z,18.74
2022-08-22T20:51:09.282Z,18.69
2022-08-22T20:53:37.642Z,18.61
2022-08-22T20:56:09.531Z,18.59
2022-08-22T20:58:40.104Z,18.60
2022-08-22T21:01:11.357Z,18.62
2022-08-22T21:03:43.273Z,18.57
2022-08-22T21:06:13.822Z,18.59
2022-08-22T21:08:42.621Z,18.51
2022-08-22T21:11:35.876Z,18.51
2022-08-22T21:14:19.001Z,18.45
2022-08-22T21:16:47.065Z,18.38
2022-08-22T21:19:18.554Z,18.29
2022-08-22T21:21:46.538Z,18.32
2022-08-22T21:24:14.495Z,18.19
2022-08-22T21:26:49.339Z,18.16
2022-08-22T21:29:23.254Z,18.23
2022-08-22T21:31:52.792Z,18.26
2022-08-22T21:34:23.311Z,18.21
2022-08-22T21:36:52.912Z,18.16
2022-08-22T21:39:22.810Z,18.12
2022-08-22T21:41:54.334Z,18.03
2022-08-22T21:44:28.697Z,18.06
2022-08-22T21:46:57.688Z,18.09
2022-08-22T21:49:29.344Z,17.93
2022-08-22T21:51:57.360Z,17.87
2022-08-22T21:54:39.722Z,17.85
2022-08-22T21:57:21.577Z,17.90
2022-08-22T21:59:59.355Z,17.92
2022-08-22T22:02:36.983Z,17.86
2022-08-22T22:05:09.157Z,17.81
2022-08-22T22:07:38.470Z,17.79
2022-08-22T22:10:08.395Z,17.75
2022-08-22T22:12:39.665Z,17.83
2022-08-22T22:15:08.708Z,17.72
2022-08-22T22:17:36.629Z,17.70
2022-08-22T22:20:06.134Z,17.69
2022-08-22T22:22:34.058Z,17.62
2022-08-22T22:25:05.788Z,17.58
2022-08-22T22:27:55.298Z,17.63
2022-08-22T22:30:26.727Z,17.60
2022-08-22T22:32:54.644Z,17.58
2022-08-22T22:35:22.726Z,17.67
2022-08-22T22:37:50.751Z,17.72
2022-08-22T22:40:18.752Z,17.64
2022-08-22T22:42:46.756Z,17.70
2022-08-22T22:45:16.054Z,17.77
2022-08-22T22:47:43.981Z,17.68
2022-08-22T22:50:12.055Z,17.69
2022-08-22T22:52:40.799Z,17.67
2022-08-22T22:55:10.416Z,17.70
2022-08-22T22:57:41.346Z,17.71
2022-08-22T23:00:13.762Z,17.79
2022-08-22T23:02:43.475Z,17.73
2022-08-22T23:05:12.193Z,17.82
2022-08-22T23:07:40.487Z,17.72
2022-08-22T23:10:09.436Z,17.69
2022-08-22T23:12:38.879Z,17.71
2022-08-22T23:15:08.420Z,17.75
2022-08-22T23:17:36.716Z,17.75
2022-08-22T23:20:06.830Z,17.63
2022-08-22T23:22:34.874Z,17.61
2022-08-22T23:25:02.857Z,17.68
2022-08-22T23:27:31.385Z,17.54
2022-08-22T23:29:59.316Z,17.67
2022-08-22T23:32:27.246Z,17.60
2022-08-22T23:34:56.126Z,17.59
2022-08-22T23:37:25.528Z,17.61
2022-08-22T23:39:53.580Z,17.58
2022-08-22T23:42:21.843Z,17.67
2022-08-22T23:44:49.871Z,17.65
2022-08-22T23:47:17.827Z,17.72
2022-08-22T23:49:45.733Z,17.50
2022-08-22T23:52:14.373Z,17.47
2022-08-22T23:54:43.894Z,17.51
2022-08-22T23:57:12.696Z,17.51
2022-08-22T23:59:46.351Z,17.48
